Terminal Aerodrome Forecast
Issued by NWS

Home | Current Version | Previous Version | Text Only | Print | Product List | Glossary On
Versions: 1 2 3 4 5 6 7 8 9 10 11 12 13 14 15 16 17 18 19 20 21 22 23 24 25
149
FTUS43 KSGF 181338 AAA
TAFBBG
TAF AMD
KBBG 181338Z 1814/1912 00000KT 1/4SM FG OVC002
     FM181500 00000KT 1SM BR OVC003
     FM181600 VRB03KT P6SM OVC008
     FM181800 12004KT P6SM OVC010
     FM190600 12004KT 1 1/2SM BR VCSH OVC003=

USA.gov is the U.S. government's official web portal to all federal, state and local government web resources and services.